createdAt,value
2022-10-13T00:00:17.281Z,58.85
2022-10-13T00:03:02.058Z,59.50
2022-10-13T00:05:46.877Z,59.50
2022-10-13T00:08:31.625Z,58.74
2022-10-13T00:11:16.501Z,58.91
2022-10-13T00:14:01.208Z,58.81
2022-10-13T00:16:46.095Z,59.72
2022-10-13T00:19:31.177Z,59.99
2022-10-13T00:22:16.300Z,59.64
2022-10-13T00:25:01.215Z,58.72
2022-10-13T00:27:46.041Z,58.18
2022-10-13T00:30:30.622Z,58.65
2022-10-13T00:33:15.472Z,58.46
2022-10-13T00:36:00.195Z,58.49
2022-10-13T00:38:44.957Z,58.57
2022-10-13T00:41:29.677Z,58.90
2022-10-13T00:44:14.486Z,58.73
2022-10-13T00:46:59.450Z,58.22
2022-10-13T00:49:44.105Z,58.96
2022-10-13T00:52:28.906Z,58.86
2022-10-13T00:55:13.645Z,59.33
2022-10-13T00:58:02.662Z,59.29
2022-10-13T01:00:49.983Z,59.97
2022-10-13T01:03:34.658Z,59.99
2022-10-13T01:06:23.446Z,59.06
2022-10-13T01:09:08.920Z,59.34
2022-10-13T01:11:53.679Z,59.52
2022-10-13T01:14:38.628Z,59.38
2022-10-13T01:17:23.154Z,58.53
2022-10-13T01:20:07.835Z,57.67
2022-10-13T01:22:52.503Z,57.67
2022-10-13T01:25:37.447Z,57.71
2022-10-13T01:28:22.252Z,57.25
2022-10-13T01:31:07.115Z,56.63
2022-10-13T01:33:51.812Z,55.94
2022-10-13T01:36:36.614Z,56.01
2022-10-13T01:39:21.504Z,55.48
2022-10-13T01:42:06.247Z,55.84
2022-10-13T01:44:51.196Z,55.97
2022-10-13T01:47:35.885Z,56.34
2022-10-13T01:50:20.572Z,56.34
2022-10-13T01:53:05.434Z,55.76
2022-10-13T01:55:50.239Z,55.49
2022-10-13T01:58:35.014Z,56.19
2022-10-13T02:01:19.856Z,56.04
2022-10-13T02:04:04.595Z,56.53
2022-10-13T02:06:49.397Z,56.34
2022-10-13T02:09:34.165Z,56.88
2022-10-13T02:12:19.140Z,56.80
2022-10-13T02:15:04.146Z,57.18
2022-10-13T02:17:48.875Z,57.05
2022-10-13T02:20:33.637Z,57.81
2022-10-13T02:23:18.408Z,57.46
2022-10-13T02:26:03.236Z,57.17
2022-10-13T02:28:47.996Z,57.46
2022-10-13T02:31:32.809Z,57.80
2022-10-13T02:34:17.648Z,57.69
2022-10-13T02:37:02.418Z,57.77
2022-10-13T02:39:47.189Z,58.26
2022-10-13T02:42:32.046Z,58.68
2022-10-13T02:45:16.912Z,58.29
2022-10-13T02:48:02.865Z,57.98
2022-10-13T02:50:47.819Z,57.84
2022-10-13T02:53:32.405Z,58.14
2022-10-13T02:56:17.185Z,58.17
2022-10-13T02:59:02.008Z,58.46
2022-10-13T03:01:46.954Z,58.43
2022-10-13T03:04:31.681Z,58.85
2022-10-13T03:07:16.342Z,59.29
2022-10-13T03:10:01.052Z,59.28
2022-10-13T03:12:45.876Z,59.14
2022-10-13T03:15:30.668Z,58.67
2022-10-13T03:18:15.392Z,59.19
2022-10-13T03:21:00.270Z,59.07
2022-10-13T03:23:44.908Z,58.62
2022-10-13T03:26:29.711Z,58.48
2022-10-13T03:29:14.538Z,58.16
2022-10-13T03:31:59.323Z,58.25
2022-10-13T03:34:44.164Z,57.85
2022-10-13T03:37:28.827Z,57.85
2022-10-13T03:40:13.673Z,57.96
2022-10-13T03:42:58.381Z,57.68
2022-10-13T03:45:43.119Z,57.85
2022-10-13T03:48:27.887Z,57.53
2022-10-13T03:51:12.657Z,57.62
2022-10-13T03:53:57.401Z,57.04
2022-10-13T03:56:42.267Z,56.89
2022-10-13T03:59:26.999Z,56.76
2022-10-13T04:02:11.765Z,56.55
2022-10-13T04:04:56.561Z,56.32
2022-10-13T04:07:41.449Z,56.13
2022-10-13T04:10:26.327Z,55.78
2022-10-13T04:13:11.086Z,55.94
2022-10-13T04:15:55.943Z,56.05
2022-10-13T04:18:44.471Z,56.36
2022-10-13T04:21:29.448Z,56.76
2022-10-13T04:24:14.227Z,56.80
2022-10-13T04:26:58.977Z,57.39
2022-10-13T04:29:43.803Z,57.43
2022-10-13T04:32:28.605Z,57.54
2022-10-13T04:35:13.346Z,56.86
2022-10-13T04:37:58.021Z,56.76
2022-10-13T04:40:43.092Z,56.41
2022-10-13T04:43:27.767Z,56.79
2022-10-13T04:46:12.539Z,57.51
2022-10-13T04:48:57.322Z,57.15
2022-10-13T04:51:41.986Z,57.13
2022-10-13T04:54:26.901Z,56.53
2022-10-13T04:57:11.673Z,56.81
2022-10-13T04:59:56.592Z,56.48
2022-10-13T05:02:41.450Z,56.53
2022-10-13T05:05:26.388Z,56.56
2022-10-13T05:08:11.112Z,57.12
2022-10-13T05:10:56.092Z,56.90
2022-10-13T05:13:41.072Z,57.84
2022-10-13T05:16:25.805Z,57.53
2022-10-13T05:19:10.708Z,57.69
2022-10-13T05:21:55.473Z,57.08
2022-10-13T05:24:40.441Z,56.45
2022-10-13T05:27:25.208Z,56.81
2022-10-13T05:30:09.904Z,56.71
2022-10-13T05:32:54.575Z,56.13
2022-10-13T05:35:39.491Z,56.57
2022-10-13T05:38:26.148Z,56.65
2022-10-13T05:41:11.102Z,56.38
2022-10-13T05:43:55.920Z,56.50
2022-10-13T05:46:40.593Z,56.05
2022-10-13T05:49:25.401Z,56.68
2022-10-13T05:52:10.150Z,55.95
2022-10-13T05:54:54.957Z,56.68
2022-10-13T05:57:39.712Z,57.69
2022-10-13T06:00:24.485Z,57.63
2022-10-13T06:03:09.347Z,57.66
2022-10-13T06:05:54.059Z,56.94
2022-10-13T06:08:38.888Z,56.86
2022-10-13T06:11:23.548Z,56.68
2022-10-13T06:14:08.312Z,56.63
2022-10-13T06:16:52.999Z,55.82
2022-10-13T06:19:37.750Z,55.63
2022-10-13T06:22:22.731Z,55.32
2022-10-13T06:25:08.076Z,55.32
2022-10-13T06:27:52.740Z,55.10
2022-10-13T06:30:37.629Z,55.94
2022-10-13T06:33:22.414Z,55.99
2022-10-13T06:36:07.196Z,55.59
2022-10-13T06:38:52.147Z,55.92
2022-10-13T06:41:36.672Z,55.53
2022-10-13T06:44:21.559Z,55.70
2022-10-13T06:47:06.276Z,55.55
2022-10-13T06:49:51.132Z,55.89
2022-10-13T06:52:35.767Z,55.90
2022-10-13T06:55:20.552Z,56.64
2022-10-13T06:58:05.270Z,56.93
2022-10-13T07:00:50.228Z,56.87
2022-10-13T07:03:35.435Z,56.61
2022-10-13T07:06:20.197Z,54.31
2022-10-13T07:09:05.161Z,55.74
2022-10-13T07:11:49.801Z,55.13
2022-10-13T07:14:34.562Z,56.82
2022-10-13T07:17:19.463Z,57.13
2022-10-13T07:20:07.231Z,55.03
2022-10-13T07:22:52.462Z,53.90
2022-10-13T07:25:37.130Z,54.52
2022-10-13T07:28:22.074Z,52.96
2022-10-13T07:31:06.754Z,53.18
2022-10-13T07:33:51.415Z,52.51
2022-10-13T07:36:36.216Z,53.68
2022-10-13T07:39:21.043Z,54.74
2022-10-13T07:42:05.819Z,52.96
2022-10-13T07:44:50.518Z,51.67
2022-10-13T07:47:35.181Z,51.75
2022-10-13T07:50:19.826Z,51.60
2022-10-13T07:53:05.568Z,51.61
2022-10-13T07:55:50.430Z,51.63
2022-10-13T07:58:35.303Z,51.66
2022-10-13T08:01:20.024Z,51.39
2022-10-13T08:04:04.876Z,52.54
2022-10-13T08:06:49.491Z,52.08
2022-10-13T08:09:34.183Z,51.30
2022-10-13T08:12:19.283Z,51.95
2022-10-13T08:15:06.251Z,51.47
2022-10-13T08:17:51.549Z,52.16
2022-10-13T08:20:41.523Z,51.35
2022-10-13T08:23:28.572Z,50.68
2022-10-13T08:26:13.327Z,51.64
2022-10-13T08:29:16.777Z,51.00
2022-10-13T08:32:02.893Z,51.27
2022-10-13T08:34:47.686Z,50.49
2022-10-13T08:37:32.495Z,49.78
2022-10-13T08:40:17.382Z,49.39
2022-10-13T08:43:02.231Z,48.85
2022-10-13T08:45:47.007Z,48.93
2022-10-13T08:48:31.827Z,48.14
2022-10-13T08:51:16.637Z,47.25
2022-10-13T08:54:01.421Z,47.84
2022-10-13T08:56:46.029Z,45.16
2022-10-13T08:59:30.871Z,45.78
2022-10-13T09:02:15.681Z,46.57
2022-10-13T09:05:00.423Z,47.43
2022-10-13T09:07:45.214Z,49.75
2022-10-13T09:10:29.909Z,49.49
2022-10-13T09:13:14.809Z,50.83
2022-10-13T09:15:59.584Z,49.05
2022-10-13T09:18:44.406Z,51.39
2022-10-13T09:21:29.142Z,52.25
2022-10-13T09:24:13.899Z,52.29
2022-10-13T09:26:58.554Z,52.74
2022-10-13T09:29:43.414Z,51.84
2022-10-13T09:32:28.152Z,51.24
2022-10-13T09:35:12.876Z,50.30
2022-10-13T09:37:57.656Z,48.28
2022-10-13T09:43:32.355Z,49.41
2022-10-13T09:46:17.040Z,48.40
2022-10-13T09:49:01.817Z,46.18
2022-10-13T09:51:46.635Z,44.26
2022-10-13T09:54:31.399Z,43.77
2022-10-13T09:57:16.311Z,45.31
2022-10-13T10:02:47.110Z,43.74
2022-10-13T10:05:31.652Z,45.26
2022-10-13T10:08:16.374Z,44.10
2022-10-13T10:11:01.123Z,44.92
2022-10-13T10:13:46.009Z,44.91
2022-10-13T10:16:30.643Z,46.11
2022-10-13T10:19:15.416Z,45.79
2022-10-13T10:22:00.155Z,46.85
2022-10-13T10:24:44.842Z,46.66
2022-10-13T10:27:29.683Z,46.87
2022-10-13T10:30:14.548Z,47.77
2022-10-13T10:32:59.220Z,46.69
2022-10-13T10:35:43.868Z,47.15
2022-10-13T10:38:28.697Z,45.87
2022-10-13T10:41:13.343Z,45.89
2022-10-13T10:43:58.060Z,44.89
2022-10-13T10:46:42.835Z,44.81
2022-10-13T10:49:27.794Z,44.48
2022-10-13T10:52:12.454Z,45.42
2022-10-13T10:54:57.389Z,45.17
2022-10-13T10:57:42.156Z,45.57
2022-10-13T11:03:12.822Z,44.13
2022-10-13T11:05:57.646Z,46.40
2022-10-13T11:08:42.435Z,47.64
2022-10-13T11:11:29.410Z,48.70
2022-10-13T11:14:15.911Z,49.72
2022-10-13T11:17:00.750Z,49.56
2022-10-13T11:19:45.509Z,49.38
2022-10-13T11:22:30.473Z,49.37
2022-10-13T11:25:15.153Z,49.15
2022-10-13T11:27:59.969Z,48.40
2022-10-13T11:30:44.782Z,47.68
2022-10-13T11:33:29.540Z,46.88
2022-10-13T11:36:14.324Z,43.01
2022-10-13T11:38:59.064Z,43.15
2022-10-13T11:41:43.839Z,44.00
2022-10-13T11:47:18.714Z,42.90
2022-10-13T11:50:03.716Z,42.80
2022-10-13T11:52:48.471Z,46.61
2022-10-13T11:55:33.375Z,49.68
2022-10-13T11:58:17.998Z,51.07
2022-10-13T12:01:02.703Z,51.05
2022-10-13T12:03:47.437Z,49.28
2022-10-13T12:06:32.268Z,48.49
2022-10-13T12:09:16.972Z,50.17
2022-10-13T12:12:01.891Z,49.63
2022-10-13T12:14:47.234Z,48.07
2022-10-13T12:17:32.301Z,48.05
2022-10-13T12:20:17.503Z,47.89
2022-10-13T12:23:02.154Z,46.50
2022-10-13T12:25:46.779Z,45.73
2022-10-13T12:28:31.526Z,46.15
2022-10-13T12:31:16.803Z,47.21
2022-10-13T12:34:01.505Z,46.78
2022-10-13T12:36:46.379Z,46.80
2022-10-13T12:39:31.079Z,45.86
2022-10-13T12:42:15.751Z,45.22
2022-10-13T12:45:00.510Z,45.07
2022-10-13T12:47:45.424Z,45.08
2022-10-13T12:50:30.470Z,45.17
2022-10-13T12:53:15.218Z,45.86
2022-10-13T12:55:59.864Z,45.97
2022-10-13T12:58:44.527Z,44.79
2022-10-13T13:01:29.367Z,46.16
2022-10-13T13:04:14.262Z,46.43
2022-10-13T13:06:58.996Z,46.37
2022-10-13T13:09:43.657Z,47.36
2022-10-13T13:12:28.434Z,47.55
2022-10-13T13:15:13.135Z,47.49
2022-10-13T13:17:59.107Z,47.72
2022-10-13T13:20:44.212Z,47.14
2022-10-13T13:23:28.937Z,47.72
2022-10-13T13:26:13.879Z,46.93
2022-10-13T13:28:58.689Z,47.58
2022-10-13T13:31:43.419Z,48.30
2022-10-13T13:34:28.254Z,50.17
2022-10-13T13:37:12.990Z,50.41
2022-10-13T13:39:57.718Z,50.63
2022-10-13T13:42:42.246Z,51.53
2022-10-13T13:45:27.112Z,50.73
2022-10-13T13:48:11.816Z,51.35
2022-10-13T13:50:56.391Z,50.97
2022-10-13T13:53:40.967Z,49.50
2022-10-13T13:56:25.665Z,51.56
2022-10-13T13:59:10.444Z,52.55
2022-10-13T14:01:55.271Z,52.89
2022-10-13T14:04:39.982Z,51.46
2022-10-13T14:07:24.883Z,50.23
2022-10-13T14:10:09.772Z,50.53
2022-10-13T14:12:54.519Z,49.69
2022-10-13T14:15:39.248Z,51.03
2022-10-13T14:18:24.091Z,50.68
2022-10-13T14:21:08.851Z,49.88
2022-10-13T14:23:53.506Z,49.90
2022-10-13T14:26:38.322Z,50.59
2022-10-13T14:29:23.071Z,51.40
2022-10-13T14:32:07.879Z,50.98
2022-10-13T14:34:52.705Z,49.96
2022-10-13T14:37:37.817Z,50.32
2022-10-13T14:40:22.935Z,49.98
2022-10-13T14:43:07.625Z,50.14
2022-10-13T14:45:52.434Z,50.32
2022-10-13T14:48:37.110Z,51.43
2022-10-13T14:51:21.990Z,52.16
2022-10-13T14:54:06.713Z,52.53
2022-10-13T14:56:51.444Z,53.83
2022-10-13T14:59:36.189Z,54.39
2022-10-13T15:02:20.949Z,54.36
2022-10-13T15:05:05.706Z,51.90
2022-10-13T15:07:50.558Z,52.22
2022-10-13T15:10:35.544Z,52.14
2022-10-13T15:13:20.193Z,51.44
2022-10-13T15:16:04.898Z,52.32
2022-10-13T15:18:49.601Z,51.83
2022-10-13T15:21:34.328Z,50.69
2022-10-13T15:24:19.045Z,51.01
2022-10-13T15:27:03.995Z,50.04
2022-10-13T15:29:48.929Z,48.89
2022-10-13T15:32:33.753Z,51.44
2022-10-13T15:35:18.526Z,53.34
2022-10-13T15:38:03.222Z,52.59
2022-10-13T15:40:47.988Z,52.40
2022-10-13T15:43:32.784Z,52.61
2022-10-13T15:46:17.716Z,52.29
2022-10-13T15:49:02.414Z,52.78
2022-10-13T15:51:47.279Z,53.16
2022-10-13T15:54:31.943Z,54.34
2022-10-13T15:57:16.777Z,55.39
2022-10-13T16:00:01.518Z,56.30
2022-10-13T16:02:46.244Z,54.02
2022-10-13T16:05:31.045Z,53.60
2022-10-13T16:08:15.788Z,53.94
2022-10-13T16:11:00.533Z,53.66
2022-10-13T16:13:45.261Z,53.30
2022-10-13T16:16:30.095Z,55.63
2022-10-13T16:19:15.049Z,55.61
2022-10-13T16:22:00.154Z,56.71
2022-10-13T16:24:44.722Z,55.15
2022-10-13T16:27:29.476Z,53.71
2022-10-13T16:30:14.272Z,55.44
2022-10-13T16:32:58.997Z,54.77
2022-10-13T16:35:43.796Z,53.76
2022-10-13T16:38:28.467Z,52.97
2022-10-13T16:41:13.272Z,52.39
2022-10-13T16:43:57.926Z,53.56
2022-10-13T16:46:42.842Z,53.70
2022-10-13T16:49:27.415Z,54.37
2022-10-13T16:52:12.118Z,55.63
2022-10-13T16:54:56.687Z,56.33
2022-10-13T16:57:41.472Z,56.17
2022-10-13T17:00:26.380Z,56.70
2022-10-13T17:03:11.299Z,55.74
2022-10-13T17:05:56.121Z,55.45
2022-10-13T17:08:40.847Z,55.30
2022-10-13T17:11:25.767Z,55.39
2022-10-13T17:14:10.415Z,55.08
2022-10-13T17:16:57.722Z,55.45
2022-10-13T17:19:43.037Z,55.54
2022-10-13T17:22:27.695Z,55.46
2022-10-13T17:25:12.537Z,56.76
2022-10-13T17:27:57.267Z,56.83
2022-10-13T17:30:42.169Z,56.76
2022-10-13T17:33:26.861Z,56.61
2022-10-13T17:36:11.662Z,57.05
2022-10-13T17:38:56.471Z,57.68
2022-10-13T17:41:41.271Z,57.18
2022-10-13T17:44:25.949Z,56.39
2022-10-13T17:47:10.840Z,57.33
2022-10-13T17:49:55.528Z,57.28
2022-10-13T17:52:40.281Z,56.19
2022-10-13T17:55:25.035Z,57.65
2022-10-13T17:58:09.914Z,58.63
2022-10-13T18:01:12.410Z,57.90
2022-10-13T18:03:58.607Z,57.82
2022-10-13T18:06:44.071Z,57.67
2022-10-13T18:09:29.164Z,57.63
2022-10-13T18:12:13.935Z,57.86
2022-10-13T18:14:58.821Z,57.93
2022-10-13T18:17:43.554Z,58.75
2022-10-13T18:20:28.404Z,59.77
2022-10-13T18:23:14.901Z,59.12
2022-10-13T18:25:59.878Z,60.53
2022-10-13T18:28:44.772Z,60.72
2022-10-13T18:31:30.060Z,60.73
2022-10-13T18:34:14.774Z,59.98
2022-10-13T18:36:59.543Z,60.04
2022-10-13T18:39:44.490Z,60.31
2022-10-13T18:42:29.124Z,60.90
2022-10-13T18:45:13.884Z,60.07
2022-10-13T18:47:58.500Z,59.93
2022-10-13T18:50:43.265Z,60.32
2022-10-13T18:53:28.194Z,60.04
2022-10-13T18:56:12.947Z,60.66
2022-10-13T18:58:59.693Z,59.89
2022-10-13T19:01:45.122Z,59.24
2022-10-13T19:04:29.898Z,60.12
2022-10-13T19:07:14.680Z,60.10
2022-10-13T19:09:59.441Z,60.52
2022-10-13T19:12:44.170Z,59.67
2022-10-13T19:15:28.892Z,59.46
2022-10-13T19:18:13.791Z,59.29
2022-10-13T19:20:58.663Z,59.36
2022-10-13T19:23:43.558Z,59.23
2022-10-13T19:26:28.178Z,60.04
2022-10-13T19:29:13.079Z,58.84
2022-10-13T19:31:57.807Z,58.56
2022-10-13T19:34:42.575Z,58.85
2022-10-13T19:37:27.337Z,59.14
2022-10-13T19:40:12.155Z,58.05
2022-10-13T19:42:56.937Z,57.99
2022-10-13T19:45:41.676Z,58.26
2022-10-13T19:48:26.464Z,57.77
2022-10-13T19:51:11.207Z,57.41
2022-10-13T19:53:56.007Z,57.28
2022-10-13T19:56:40.646Z,57.49
2022-10-13T19:59:25.414Z,57.23
2022-10-13T20:02:10.018Z,57.40
2022-10-13T20:04:54.807Z,56.70
2022-10-13T20:07:39.487Z,55.81
2022-10-13T20:10:24.374Z,55.28
2022-10-13T20:13:09.287Z,55.96
2022-10-13T20:15:53.980Z,56.68
2022-10-13T20:18:38.630Z,57.54
2022-10-13T20:21:23.284Z,57.73
2022-10-13T20:24:08.209Z,57.21
2022-10-13T20:26:52.820Z,56.45
2022-10-13T20:29:37.551Z,57.01
2022-10-13T20:32:22.363Z,56.21
2022-10-13T20:35:07.188Z,56.04
2022-10-13T20:37:51.779Z,56.26
2022-10-13T20:40:36.522Z,57.04
2022-10-13T20:43:25.653Z,58.18
2022-10-13T20:46:10.642Z,58.50
2022-10-13T20:49:10.572Z,58.08
2022-10-13T20:51:56.456Z,58.05
2022-10-13T20:54:41.229Z,58.08
2022-10-13T20:57:25.907Z,57.44
2022-10-13T21:00:10.671Z,58.81
2022-10-13T21:02:58.824Z,58.53
2022-10-13T21:05:46.901Z,57.32
2022-10-13T21:08:31.728Z,56.94
2022-10-13T21:11:16.525Z,56.63
2022-10-13T21:14:01.286Z,56.95
2022-10-13T21:16:46.046Z,56.03
2022-10-13T21:19:30.737Z,56.61
2022-10-13T21:22:15.386Z,57.07
2022-10-13T21:25:00.178Z,56.81
2022-10-13T21:27:44.879Z,56.53
2022-10-13T21:30:29.750Z,56.19
2022-10-13T21:33:14.345Z,56.09
2022-10-13T21:35:59.156Z,56.31
2022-10-13T21:38:43.857Z,56.80
2022-10-13T21:41:28.592Z,56.16
2022-10-13T21:44:13.387Z,57.14
2022-10-13T21:46:58.309Z,57.08
2022-10-13T21:49:43.411Z,57.25
2022-10-13T21:52:28.089Z,57.28
2022-10-13T21:55:12.681Z,57.40
2022-10-13T21:58:00.582Z,57.49
2022-10-13T22:00:47.831Z,57.75
2022-10-13T22:03:32.473Z,58.30
2022-10-13T22:06:19.168Z,58.64
2022-10-13T22:09:04.256Z,59.19
2022-10-13T22:11:51.833Z,59.43
2022-10-13T22:14:40.236Z,59.31
2022-10-13T22:17:25.067Z,59.06
2022-10-13T22:20:09.789Z,58.91
2022-10-13T22:22:54.424Z,58.65
2022-10-13T22:25:39.160Z,59.08
2022-10-13T22:28:24.150Z,58.83
2022-10-13T22:31:08.793Z,58.95
2022-10-13T22:33:53.528Z,58.64
2022-10-13T22:36:42.196Z,59.34
2022-10-13T22:39:28.317Z,59.77
2022-10-13T22:42:13.064Z,59.32
2022-10-13T22:44:57.845Z,59.29
2022-10-13T22:47:42.623Z,58.86
2022-10-13T22:50:27.485Z,59.30
2022-10-13T22:53:12.222Z,59.13
2022-10-13T22:55:57.185Z,59.94
2022-10-13T22:58:41.897Z,59.64
2022-10-13T23:01:26.729Z,59.30
2022-10-13T23:04:11.435Z,59.82
2022-10-13T23:06:56.303Z,60.05
2022-10-13T23:09:41.078Z,59.68
2022-10-13T23:12:25.849Z,59.91
2022-10-13T23:15:10.740Z,59.65
2022-10-13T23:17:55.600Z,60.21
2022-10-13T23:20:40.317Z,60.55
2022-10-13T23:23:24.984Z,61.00
2022-10-13T23:26:09.821Z,61.03
2022-10-13T23:28:54.694Z,61.18
2022-10-13T23:31:39.839Z,61.23
2022-10-13T23:34:24.611Z,60.99
2022-10-13T23:37:09.437Z,61.51
2022-10-13T23:39:54.138Z,61.50
2022-10-13T23:42:39.028Z,60.79
2022-10-13T23:45:23.736Z,61.10
2022-10-13T23:48:08.510Z,61.26
2022-10-13T23:50:53.337Z,61.02
2022-10-13T23:53:38.211Z,60.73
2022-10-13T23:56:22.923Z,60.47
2022-10-13T23:59:07.720Z,62.10
